sensor_id;sensor_type;location;lat;lon;timestamp;pressure;altitude;pressure_sealevel;temperature;humidity
52137;BME280;69622;49.570;10.986;2023-05-01T00:00:28;98488.38;;;10.78;77.93
52137;BME280;69622;49.570;10.986;2023-05-01T00:03:30;98478.22;;;10.87;76.24
52137;BME280;69622;49.570;10.986;2023-05-01T00:06:31;98476.03;;;10.93;74.93
52137;BME280;69622;49.570;10.986;2023-05-01T00:09:33;98464.63;;;10.83;75.15
52137;BME280;69622;49.570;10.986;2023-05-01T00:12:35;98469.59;;;10.86;75.23
52137;BME280;69622;49.570;10.986;2023-05-01T00:15:39;98464.03;;;10.79;75.97
52137;BME280;69622;49.570;10.986;2023-05-01T00:18:41;98463.44;;;10.76;76.08
52137;BME280;69622;49.570;10.986;2023-05-01T00:21:46;98455.34;;;10.68;75.81
52137;BME280;69622;49.570;10.986;2023-05-01T00:24:48;98460.56;;;10.68;75.68
52137;BME280;69622;49.570;10.986;2023-05-01T00:27:50;98449.72;;;10.74;75.15
52137;BME280;69622;49.570;10.986;2023-05-01T00:30:51;98443.38;;;10.54;76.88
52137;BME280;69622;49.570;10.986;2023-05-01T00:33:53;98439.41;;;10.61;76.98
52137;BME280;69622;49.570;10.986;2023-05-01T00:36:54;98440.22;;;10.62;75.63
52137;BME280;69622;49.570;10.986;2023-05-01T00:39:56;98436.50;;;10.42;76.87
52137;BME280;69622;49.570;10.986;2023-05-01T00:42:58;98438.69;;;10.59;76.17
52137;BME280;69622;49.570;10.986;2023-05-01T00:45:59;98426.34;;;10.50;77.22
52137;BME280;69622;49.570;10.986;2023-05-01T00:49:02;98418.50;;;10.15;79.28
52137;BME280;69622;49.570;10.986;2023-05-01T00:52:04;98419.06;;;10.31;79.13
52137;BME280;69622;49.570;10.986;2023-05-01T00:55:06;98415.66;;;9.94;83.31
52137;BME280;69622;49.570;10.986;2023-05-01T00:58:09;98420.38;;;9.76;85.32
52137;BME280;69622;49.570;10.986;2023-05-01T01:01:11;98419.03;;;9.71;84.45
52137;BME280;69622;49.570;10.986;2023-05-01T01:04:13;98406.00;;;9.96;81.52
52137;BME280;69622;49.570;10.986;2023-05-01T01:07:39;98410.50;;;9.81;80.74
52137;BME280;69622;49.570;10.986;2023-05-01T01:10:54;98401.59;;;9.73;81.46
52137;BME280;69622;49.570;10.986;2023-05-01T01:14:05;98396.53;;;9.95;78.33
52137;BME280;69622;49.570;10.986;2023-05-01T01:17:15;98393.66;;;9.87;78.87
52137;BME280;69622;49.570;10.986;2023-05-01T01:20:31;98398.38;;;9.33;79.73
52137;BME280;69622;49.570;10.986;2023-05-01T01:27:09;98396.63;;;9.20;80.17
52137;BME280;69622;49.570;10.986;2023-05-01T01:33:48;98389.59;;;9.46;79.63
52137;BME280;69622;49.570;10.986;2023-05-01T01:37:01;98384.16;;;9.62;78.69
52137;BME280;69622;49.570;10.986;2023-05-01T01:40:11;98387.66;;;9.37;77.37
52137;BME280;69622;49.570;10.986;2023-05-01T01:43:16;98393.88;;;9.47;77.90
52137;BME280;69622;49.570;10.986;2023-05-01T01:46:19;98385.63;;;9.04;76.57
52137;BME280;69622;49.570;10.986;2023-05-01T01:49:24;98388.50;;;9.38;74.41
52137;BME280;69622;49.570;10.986;2023-05-01T01:52:27;98385.28;;;9.71;75.17
52137;BME280;69622;49.570;10.986;2023-05-01T01:55:31;98384.88;;;9.15;75.12
52137;BME280;69622;49.570;10.986;2023-05-01T01:58:35;98375.84;;;9.20;74.54
52137;BME280;69622;49.570;10.986;2023-05-01T02:01:39;98378.56;;;9.06;74.99
52137;BME280;69622;49.570;10.986;2023-05-01T02:04:43;98380.44;;;9.04;74.84
52137;BME280;69622;49.570;10.986;2023-05-01T02:07:47;98374.00;;;8.97;76.33
52137;BME280;69622;49.570;10.986;2023-05-01T02:10:49;98370.16;;;9.15;74.95
52137;BME280;69622;49.570;10.986;2023-05-01T02:13:53;98370.75;;;9.32;73.88
52137;BME280;69622;49.570;10.986;2023-05-01T02:16:55;98369.84;;;9.20;77.08
52137;BME280;69622;49.570;10.986;2023-05-01T02:19:59;98357.97;;;9.28;74.11
52137;BME280;69622;49.570;10.986;2023-05-01T02:23:02;98360.47;;;9.30;73.71
52137;BME280;69622;49.570;10.986;2023-05-01T02:26:05;98364.56;;;8.96;73.45
52137;BME280;69622;49.570;10.986;2023-05-01T02:29:09;98354.88;;;9.36;71.90
52137;BME280;69622;49.570;10.986;2023-05-01T02:32:10;98353.66;;;9.16;72.85
52137;BME280;69622;49.570;10.986;2023-05-01T02:35:12;98347.41;;;9.32;72.42
52137;BME280;69622;49.570;10.986;2023-05-01T02:38:14;98344.53;;;9.11;73.38
52137;BME280;69622;49.570;10.986;2023-05-01T02:41:17;98353.75;;;9.15;71.87
52137;BME280;69622;49.570;10.986;2023-05-01T02:44:22;98344.94;;;9.17;70.64
52137;BME280;69622;49.570;10.986;2023-05-01T02:47:26;98348.25;;;9.32;70.28
52137;BME280;69622;49.570;10.986;2023-05-01T02:50:29;98344.81;;;9.32;69.84
52137;BME280;69622;49.570;10.986;2023-05-01T02:53:31;98340.16;;;9.11;71.33
52137;BME280;69622;49.570;10.986;2023-05-01T02:56:33;98342.34;;;9.17;71.11
52137;BME280;69622;49.570;10.986;2023-05-01T02:59:35;98346.88;;;9.26;70.21
52137;BME280;69622;49.570;10.986;2023-05-01T03:02:37;98343.91;;;9.20;69.53
52137;BME280;69622;49.570;10.986;2023-05-01T03:05:38;98339.25;;;8.99;70.09
52137;BME280;69622;49.570;10.986;2023-05-01T03:08:41;98338.94;;;9.17;70.10
52137;BME280;69622;49.570;10.986;2023-05-01T03:11:43;98348.78;;;9.12;70.18
52137;BME280;69622;49.570;10.986;2023-05-01T03:14:44;98334.94;;;9.37;68.52
52137;BME280;69622;49.570;10.986;2023-05-01T03:17:45;98338.72;;;9.20;70.93
52137;BME280;69622;49.570;10.986;2023-05-01T03:20:51;98340.97;;;9.24;69.98
52137;BME280;69622;49.570;10.986;2023-05-01T03:23:53;98339.44;;;9.22;70.89
52137;BME280;69622;49.570;10.986;2023-05-01T03:26:55;98335.06;;;9.22;70.33
52137;BME280;69622;49.570;10.986;2023-05-01T03:29:56;98329.69;;;9.13;70.03
52137;BME280;69622;49.570;10.986;2023-05-01T03:32:58;98328.78;;;8.88;70.40
52137;BME280;69622;49.570;10.986;2023-05-01T03:36:01;98328.47;;;8.93;70.34
52137;BME280;69622;49.570;10.986;2023-05-01T03:39:04;98329.78;;;8.98;70.54
52137;BME280;69622;49.570;10.986;2023-05-01T03:42:05;98326.81;;;9.05;69.77
52137;BME280;69622;49.570;10.986;2023-05-01T03:45:07;98323.19;;;8.82;70.65
52137;BME280;69622;49.570;10.986;2023-05-01T03:48:09;98332.09;;;8.78;71.43
52137;BME280;69622;49.570;10.986;2023-05-01T03:51:10;98315.59;;;8.66;72.17
52137;BME280;69622;49.570;10.986;2023-05-01T03:54:12;98311.56;;;9.00;71.38
52137;BME280;69622;49.570;10.986;2023-05-01T03:57:13;98317.38;;;8.78;72.50
52137;BME280;69622;49.570;10.986;2023-05-01T04:00:15;98316.00;;;8.98;71.90
52137;BME280;69622;49.570;10.986;2023-05-01T04:03:16;98310.31;;;9.06;71.28
52137;BME280;69622;49.570;10.986;2023-05-01T04:06:18;98314.06;;;8.89;71.82
52137;BME280;69622;49.570;10.986;2023-05-01T04:09:19;98311.56;;;8.87;72.05
52137;BME280;69622;49.570;10.986;2023-05-01T04:12:21;98306.59;;;8.84;72.27
52137;BME280;69622;49.570;10.986;2023-05-01T04:15:22;98311.56;;;8.87;73.03
52137;BME280;69622;49.570;10.986;2023-05-01T04:18:24;98306.69;;;8.95;73.91
52137;BME280;69622;49.570;10.986;2023-05-01T04:21:25;98307.84;;;8.79;74.43
52137;BME280;69622;49.570;10.986;2023-05-01T04:24:26;98305.44;;;8.63;75.15
52137;BME280;69622;49.570;10.986;2023-05-01T04:27:28;98308.66;;;8.92;73.97
52137;BME280;69622;49.570;10.986;2023-05-01T04:30:30;98295.81;;;8.90;74.48
52137;BME280;69622;49.570;10.986;2023-05-01T04:33:31;98294.47;;;8.72;75.00
52137;BME280;69622;49.570;10.986;2023-05-01T04:36:33;98299.63;;;8.97;74.24
52137;BME280;69622;49.570;10.986;2023-05-01T04:39:34;98296.72;;;9.02;72.96
52137;BME280;69622;49.570;10.986;2023-05-01T04:42:36;98300.66;;;8.95;73.52
52137;BME280;69622;49.570;10.986;2023-05-01T04:45:37;98298.59;;;9.00;73.83
52137;BME280;69622;49.570;10.986;2023-05-01T04:48:39;98305.22;;;8.91;75.32
52137;BME280;69622;49.570;10.986;2023-05-01T04:51:41;98299.72;;;8.96;75.67
52137;BME280;69622;49.570;10.986;2023-05-01T04:54:42;98299.81;;;8.31;79.63
52137;BME280;69622;49.570;10.986;2023-05-01T04:57:43;98309.28;;;8.83;75.72
52137;BME280;69622;49.570;10.986;2023-05-01T05:00:45;98305.13;;;8.80;75.49
52137;BME280;69622;49.570;10.986;2023-05-01T05:03:46;98302.66;;;8.66;74.91
52137;BME280;69622;49.570;10.986;2023-05-01T05:06:50;98301.19;;;8.87;75.31
52137;BME280;69622;49.570;10.986;2023-05-01T05:09:52;98303.69;;;8.89;73.71
52137;BME280;69622;49.570;10.986;2023-05-01T05:12:53;98307.22;;;8.88;73.09
52137;BME280;69622;49.570;10.986;2023-05-01T05:15:54;98308.88;;;9.02;72.83
52137;BME280;69622;49.570;10.986;2023-05-01T05:18:56;98300.88;;;8.92;70.60
52137;BME280;69622;49.570;10.986;2023-05-01T05:21:58;98297.94;;;9.09;70.55
52137;BME280;69622;49.570;10.986;2023-05-01T05:25:02;98295.44;;;9.20;69.23
52137;BME280;69622;49.570;10.986;2023-05-01T05:28:04;98293.63;;;9.34;69.69
52137;BME280;69622;49.570;10.986;2023-05-01T05:31:06;98295.09;;;9.25;70.31
52137;BME280;69622;49.570;10.986;2023-05-01T05:34:07;98299.09;;;9.42;68.59
52137;BME280;69622;49.570;10.986;2023-05-01T05:37:08;98299.56;;;9.23;69.61
52137;BME280;69622;49.570;10.986;2023-05-01T05:40:10;98298.44;;;9.14;66.25
52137;BME280;69622;49.570;10.986;2023-05-01T05:43:12;98293.75;;;9.32;66.88
52137;BME280;69622;49.570;10.986;2023-05-01T05:46:13;98292.00;;;9.20;66.95
52137;BME280;69622;49.570;10.986;2023-05-01T05:49:14;98293.22;;;9.27;67.27
52137;BME280;69622;49.570;10.986;2023-05-01T05:52:16;98291.19;;;9.43;66.35
52137;BME280;69622;49.570;10.986;2023-05-01T05:55:17;98289.06;;;9.61;67.18
52137;BME280;69622;49.570;10.986;2023-05-01T05:58:19;98284.69;;;9.61;66.05
52137;BME280;69622;49.570;10.986;2023-05-01T06:01:20;98286.47;;;9.61;65.73
52137;BME280;69622;49.570;10.986;2023-05-01T06:04:21;98285.59;;;9.73;63.85
52137;BME280;69622;49.570;10.986;2023-05-01T06:07:23;98282.63;;;9.67;65.44
52137;BME280;69622;49.570;10.986;2023-05-01T06:10:25;98280.28;;;9.75;63.46
52137;BME280;69622;49.570;10.986;2023-05-01T06:13:27;98265.53;;;9.75;64.76
52137;BME280;69622;49.570;10.986;2023-05-01T06:16:28;98265.97;;;9.69;64.36
52137;BME280;69622;49.570;10.986;2023-05-01T06:19:30;98265.41;;;9.77;65.52
52137;BME280;69622;49.570;10.986;2023-05-01T06:22:31;98271.00;;;9.83;66.45
52137;BME280;69622;49.570;10.986;2023-05-01T06:25:32;98269.75;;;10.00;64.34
52137;BME280;69622;49.570;10.986;2023-05-01T06:28:34;98272.72;;;10.07;64.38
52137;BME280;69622;49.570;10.986;2023-05-01T06:31:35;98275.97;;;10.22;64.99
52137;BME280;69622;49.570;10.986;2023-05-01T06:34:37;98268.06;;;10.23;64.60
52137;BME280;69622;49.570;10.986;2023-05-01T06:37:38;98260.00;;;10.15;64.29
52137;BME280;69622;49.570;10.986;2023-05-01T06:40:39;98256.63;;;10.37;62.52
52137;BME280;69622;49.570;10.986;2023-05-01T06:43:41;98258.78;;;10.32;64.93
52137;BME280;69622;49.570;10.986;2023-05-01T06:46:43;98246.25;;;10.48;63.98
52137;BME280;69622;49.570;10.986;2023-05-01T06:49:44;98254.91;;;10.60;63.58
52137;BME280;69622;49.570;10.986;2023-05-01T06:52:46;98245.09;;;10.74;63.87
52137;BME280;69622;49.570;10.986;2023-05-01T06:55:47;98239.19;;;10.84;61.82
52137;BME280;69622;49.570;10.986;2023-05-01T06:58:48;98242.38;;;10.76;63.27
52137;BME280;69622;49.570;10.986;2023-05-01T07:01:50;98243.78;;;10.80;63.49
52137;BME280;69622;49.570;10.986;2023-05-01T07:04:52;98239.06;;;10.74;62.56
52137;BME280;69622;49.570;10.986;2023-05-01T07:07:53;98249.22;;;10.88;63.21
52137;BME280;69622;49.570;10.986;2023-05-01T07:11:01;98245.66;;;11.12;63.84
52137;BME280;69622;49.570;10.986;2023-05-01T07:14:03;98247.31;;;11.01;64.30
52137;BME280;69622;49.570;10.986;2023-05-01T07:17:04;98246.97;;;11.06;63.90
52137;BME280;69622;49.570;10.986;2023-05-01T07:20:07;98253.78;;;11.29;62.14
52137;BME280;69622;49.570;10.986;2023-05-01T07:23:08;98242.09;;;11.24;61.00
52137;BME280;69622;49.570;10.986;2023-05-01T07:26:10;98234.53;;;11.09;61.56
52137;BME280;69622;49.570;10.986;2023-05-01T07:29:11;98234.75;;;11.18;62.03
52137;BME280;69622;49.570;10.986;2023-05-01T07:32:13;98238.09;;;11.52;62.13
52137;BME280;69622;49.570;10.986;2023-05-01T07:35:15;98232.94;;;11.73;61.12
52137;BME280;69622;49.570;10.986;2023-05-01T07:38:16;98229.63;;;11.70;64.33
52137;BME280;69622;49.570;10.986;2023-05-01T07:41:18;98218.31;;;11.92;61.64
52137;BME280;69622;49.570;10.986;2023-05-01T07:44:19;98214.09;;;11.80;61.38
52137;BME280;69622;49.570;10.986;2023-05-01T07:47:21;98220.47;;;12.08;60.99
52137;BME280;69622;49.570;10.986;2023-05-01T07:50:23;98217.88;;;12.08;60.76
52137;BME280;69622;49.570;10.986;2023-05-01T07:53:25;98217.16;;;12.06;60.39
52137;BME280;69622;49.570;10.986;2023-05-01T07:56:26;98219.00;;;12.36;60.32
52137;BME280;69622;49.570;10.986;2023-05-01T07:59:28;98215.00;;;12.32;59.08
52137;BME280;69622;49.570;10.986;2023-05-01T08:02:30;98213.56;;;12.49;59.26
52137;BME280;69622;49.570;10.986;2023-05-01T08:05:31;98198.91;;;12.57;58.64
52137;BME280;69622;49.570;10.986;2023-05-01T08:08:33;98190.69;;;12.62;57.96
52137;BME280;69622;49.570;10.986;2023-05-01T08:11:34;98194.47;;;12.79;57.39
52137;BME280;69622;49.570;10.986;2023-05-01T08:14:35;98197.03;;;12.69;57.63
52137;BME280;69622;49.570;10.986;2023-05-01T08:17:37;98188.31;;;12.89;59.50
52137;BME280;69622;49.570;10.986;2023-05-01T08:20:38;98193.78;;;12.86;55.84
52137;BME280;69622;49.570;10.986;2023-05-01T08:23:40;98183.03;;;12.70;57.44
52137;BME280;69622;49.570;10.986;2023-05-01T08:26:41;98178.31;;;13.04;58.40
52137;BME280;69622;49.570;10.986;2023-05-01T08:29:43;98186.50;;;13.30;57.98
52137;BME280;69622;49.570;10.986;2023-05-01T08:32:44;98187.47;;;13.29;56.83
52137;BME280;69622;49.570;10.986;2023-05-01T08:35:46;98185.78;;;13.18;56.47
52137;BME280;69622;49.570;10.986;2023-05-01T08:38:48;98185.97;;;13.46;54.75
52137;BME280;69622;49.570;10.986;2023-05-01T08:41:50;98187.19;;;13.52;54.91
52137;BME280;69622;49.570;10.986;2023-05-01T08:44:54;98185.81;;;13.67;53.51
52137;BME280;69622;49.570;10.986;2023-05-01T08:47:59;98182.13;;;13.60;55.21
52137;BME280;69622;49.570;10.986;2023-05-01T08:51:02;98186.63;;;13.87;54.50
52137;BME280;69622;49.570;10.986;2023-05-01T08:54:04;98183.47;;;13.64;53.59
52137;BME280;69622;49.570;10.986;2023-05-01T08:57:08;98178.78;;;13.96;55.56
52137;BME280;69622;49.570;10.986;2023-05-01T09:00:16;98181.94;;;14.00;53.47
52137;BME280;69622;49.570;10.986;2023-05-01T09:03:19;98172.72;;;14.05;53.23
52137;BME280;69622;49.570;10.986;2023-05-01T09:06:22;98183.66;;;14.28;54.44
52137;BME280;69622;49.570;10.986;2023-05-01T09:09:23;98173.63;;;14.24;52.98
52137;BME280;69622;49.570;10.986;2023-05-01T09:12:25;98177.00;;;13.87;51.97
52137;BME280;69622;49.570;10.986;2023-05-01T09:15:28;98177.69;;;13.70;54.31
52137;BME280;69622;49.570;10.986;2023-05-01T09:18:30;98188.06;;;14.28;54.69
52137;BME280;69622;49.570;10.986;2023-05-01T09:21:31;98181.63;;;14.13;53.55
52137;BME280;69622;49.570;10.986;2023-05-01T09:24:33;98185.88;;;14.14;54.63
52137;BME280;69622;49.570;10.986;2023-05-01T09:27:35;98184.81;;;14.06;53.55
52137;BME280;69622;49.570;10.986;2023-05-01T09:30:37;98184.69;;;14.08;52.70
52137;BME280;69622;49.570;10.986;2023-05-01T09:33:56;98185.19;;;14.21;53.44
52137;BME280;69622;49.570;10.986;2023-05-01T09:36:58;98186.31;;;13.99;55.03
52137;BME280;69622;49.570;10.986;2023-05-01T09:40:19;98185.78;;;14.05;52.87
52137;BME280;69622;49.570;10.986;2023-05-01T09:43:28;98181.94;;;14.00;54.21
52137;BME280;69622;49.570;10.986;2023-05-01T09:46:40;98180.66;;;14.23;52.19
52137;BME280;69622;49.570;10.986;2023-05-01T09:49:46;98187.22;;;14.27;51.80
52137;BME280;69622;49.570;10.986;2023-05-01T09:52:50;98178.03;;;14.23;52.01
52137;BME280;69622;49.570;10.986;2023-05-01T09:55:59;98184.13;;;14.04;53.67
52137;BME280;69622;49.570;10.986;2023-05-01T09:59:18;98181.53;;;13.85;53.41
52137;BME280;69622;49.570;10.986;2023-05-01T10:02:27;98171.09;;;14.32;53.50
52137;BME280;69622;49.570;10.986;2023-05-01T10:05:41;98181.28;;;14.45;54.43
52137;BME280;69622;49.570;10.986;2023-05-01T10:08:47;98171.50;;;14.47;54.76
52137;BME280;69622;49.570;10.986;2023-05-01T10:11:50;98171.66;;;14.45;54.18
52137;BME280;69622;49.570;10.986;2023-05-01T10:14:56;98170.66;;;14.56;53.89
52137;BME280;69622;49.570;10.986;2023-05-01T10:17:58;98172.44;;;14.55;55.44
52137;BME280;69622;49.570;10.986;2023-05-01T10:20:59;98171.09;;;14.32;56.42
52137;BME280;69622;49.570;10.986;2023-05-01T10:24:01;98173.50;;;14.62;55.84
52137;BME280;69622;49.570;10.986;2023-05-01T10:27:05;98172.56;;;14.07;54.31
52137;BME280;69622;49.570;10.986;2023-05-01T10:30:08;98178.56;;;14.27;55.56
52137;BME280;69622;49.570;10.986;2023-05-01T10:33:12;98177.72;;;14.36;57.83
52137;BME280;69622;49.570;10.986;2023-05-01T10:36:20;98173.53;;;14.06;63.82
52137;BME280;69622;49.570;10.986;2023-05-01T10:39:30;98182.34;;;13.95;63.61
52137;BME280;69622;49.570;10.986;2023-05-01T10:42:32;98178.53;;;13.90;66.36
52137;BME280;69622;49.570;10.986;2023-05-01T10:45:34;98178.19;;;14.02;70.85
52137;BME280;69622;49.570;10.986;2023-05-01T10:55:33;98173.50;;;13.09;85.78
52137;BME280;69622;49.570;10.986;2023-05-01T11:01:46;98170.31;;;12.86;92.69
52137;BME280;69622;49.570;10.986;2023-05-01T11:04:49;98176.34;;;12.87;97.46
52137;BME280;69622;49.570;10.986;2023-05-01T11:18:02;98196.16;;;12.28;100.00
52137;BME280;69622;49.570;10.986;2023-05-01T11:21:06;98192.69;;;12.18;100.00
52137;BME280;69622;49.570;10.986;2023-05-01T11:24:09;98195.63;;;12.04;100.00
52137;BME280;69622;49.570;10.986;2023-05-01T11:27:12;98200.19;;;11.91;100.00
52137;BME280;69622;49.570;10.986;2023-05-01T11:30:14;98192.75;;;12.07;100.00
52137;BME280;69622;49.570;10.986;2023-05-01T11:33:21;98196.00;;;12.20;100.00
52137;BME280;69622;49.570;10.986;2023-05-01T11:36:23;98195.88;;;12.01;100.00
52137;BME280;69622;49.570;10.986;2023-05-01T11:39:25;98197.97;;;12.07;100.00
52137;BME280;69622;49.570;10.986;2023-05-01T11:42:26;98200.69;;;12.26;100.00
52137;BME280;69622;49.570;10.986;2023-05-01T11:45:28;98196.19;;;11.87;100.00
52137;BME280;69622;49.570;10.986;2023-05-01T11:48:30;98201.91;;;12.02;100.00
52137;BME280;69622;49.570;10.986;2023-05-01T11:51:32;98199.47;;;11.68;100.00
52137;BME280;69622;49.570;10.986;2023-05-01T11:54:46;98197.75;;;11.78;100.00
52137;BME280;69622;49.570;10.986;2023-05-01T11:57:51;98200.72;;;11.74;100.00
52137;BME280;69622;49.570;10.986;2023-05-01T12:00:53;98198.38;;;11.70;100.00
52137;BME280;69622;49.570;10.986;2023-05-01T12:03:54;98199.06;;;12.05;100.00
52137;BME280;69622;49.570;10.986;2023-05-01T12:06:56;98200.00;;;12.24;100.00
52137;BME280;69622;49.570;10.986;2023-05-01T12:09:58;98197.72;;;12.10;100.00
52137;BME280;69622;49.570;10.986;2023-05-01T12:13:01;98206.75;;;12.06;100.00
52137;BME280;69622;49.570;10.986;2023-05-01T12:16:04;98206.50;;;11.88;100.00
52137;BME280;69622;49.570;10.986;2023-05-01T12:19:06;98202.59;;;11.83;100.00
52137;BME280;69622;49.570;10.986;2023-05-01T12:22:08;98208.19;;;11.99;100.00
52137;BME280;69622;49.570;10.986;2023-05-01T12:25:09;98201.66;;;12.05;100.00
52137;BME280;69622;49.570;10.986;2023-05-01T12:31:15;98210.22;;;11.95;100.00
52137;BME280;69622;49.570;10.986;2023-05-01T12:34:17;98202.81;;;11.91;100.00
52137;BME280;69622;49.570;10.986;2023-05-01T12:37:19;98205.94;;;11.85;100.00
52137;BME280;69622;49.570;10.986;2023-05-01T12:40:20;98204.44;;;11.92;100.00
52137;BME280;69622;49.570;10.986;2023-05-01T12:43:31;98204.06;;;11.96;100.00
52137;BME280;69622;49.570;10.986;2023-05-01T12:46:32;98201.78;;;11.82;100.00
52137;BME280;69622;49.570;10.986;2023-05-01T12:49:36;98198.91;;;12.27;100.00
52137;BME280;69622;49.570;10.986;2023-05-01T12:52:37;98198.69;;;12.40;100.00
52137;BME280;69622;49.570;10.986;2023-05-01T12:55:46;98195.88;;;12.22;100.00
52137;BME280;69622;49.570;10.986;2023-05-01T12:58:48;98195.63;;;12.04;100.00
52137;BME280;69622;49.570;10.986;2023-05-01T13:02:01;98194.44;;;12.39;100.00
52137;BME280;69622;49.570;10.986;2023-05-01T13:05:07;98191.28;;;12.35;100.00
52137;BME280;69622;49.570;10.986;2023-05-01T13:08:09;98194.56;;;11.86;100.00
52137;BME280;69622;49.570;10.986;2023-05-01T13:11:12;98178.50;;;12.11;100.00
52137;BME280;69622;49.570;10.986;2023-05-01T13:14:14;98186.03;;;12.05;100.00
52137;BME280;69622;49.570;10.986;2023-05-01T13:17:25;98176.19;;;11.87;100.00
52137;BME280;69622;49.570;10.986;2023-05-01T13:20:27;98185.38;;;11.91;100.00
52137;BME280;69622;49.570;10.986;2023-05-01T13:23:28;98181.81;;;11.72;100.00
52137;BME280;69622;49.570;10.986;2023-05-01T13:26:32;98184.19;;;11.95;100.00
52137;BME280;69622;49.570;10.986;2023-05-01T13:29:35;98178.97;;;12.16;100.00
52137;BME280;69622;49.570;10.986;2023-05-01T13:32:39;98187.00;;;11.72;100.00
52137;BME280;69622;49.570;10.986;2023-05-01T13:35:41;98189.56;;;11.83;100.00
52137;BME280;69622;49.570;10.986;2023-05-01T13:38:48;98182.19;;;12.09;100.00
52137;BME280;69622;49.570;10.986;2023-05-01T13:41:52;98179.53;;;11.99;100.00
52137;BME280;69622;49.570;10.986;2023-05-01T13:44:55;98188.59;;;12.25;100.00
52137;BME280;69622;49.570;10.986;2023-05-01T13:47:57;98186.53;;;12.19;100.00
52137;BME280;69622;49.570;10.986;2023-05-01T13:50:59;98190.44;;;12.35;100.00
52137;BME280;69622;49.570;10.986;2023-05-01T13:54:01;98187.34;;;12.20;100.00
52137;BME280;69622;49.570;10.986;2023-05-01T13:57:03;98186.94;;;11.62;100.00
52137;BME280;69622;49.570;10.986;2023-05-01T14:00:06;98189.28;;;11.33;100.00
52137;BME280;69622;49.570;10.986;2023-05-01T14:03:09;98177.06;;;11.65;100.00
52137;BME280;69622;49.570;10.986;2023-05-01T14:06:13;98189.56;;;11.83;100.00
52137;BME280;69622;49.570;10.986;2023-05-01T14:09:17;98184.28;;;11.73;100.00
52137;BME280;69622;49.570;10.986;2023-05-01T14:12:25;98184.81;;;11.88;100.00
52137;BME280;69622;49.570;10.986;2023-05-01T14:15:27;98184.94;;;11.86;100.00
52137;BME280;69622;49.570;10.986;2023-05-01T14:18:29;98181.81;;;11.92;100.00
52137;BME280;69622;49.570;10.986;2023-05-01T14:21:36;98178.34;;;12.03;100.00
52137;BME280;69622;49.570;10.986;2023-05-01T14:24:39;98175.28;;;11.98;100.00
52137;BME280;69622;49.570;10.986;2023-05-01T14:27:41;98179.09;;;11.41;100.00
52137;BME280;69622;49.570;10.986;2023-05-01T14:30:42;98181.22;;;11.68;100.00
52137;BME280;69622;49.570;10.986;2023-05-01T14:33:44;98180.50;;;11.45;100.00
52137;BME280;69622;49.570;10.986;2023-05-01T14:36:45;98174.94;;;11.70;100.00
52137;BME280;69622;49.570;10.986;2023-05-01T14:39:47;98177.28;;;11.85;100.00
52137;BME280;69622;49.570;10.986;2023-05-01T14:42:49;98178.13;;;11.95;100.00
52137;BME280;69622;49.570;10.986;2023-05-01T14:45:50;98180.22;;;11.80;100.00
52137;BME280;69622;49.570;10.986;2023-05-01T14:48:52;98176.94;;;11.67;100.00
52137;BME280;69622;49.570;10.986;2023-05-01T14:51:54;98183.09;;;11.98;100.00
52137;BME280;69622;49.570;10.986;2023-05-01T14:54:55;98177.69;;;11.69;100.00
52137;BME280;69622;49.570;10.986;2023-05-01T14:57:57;98179.16;;;11.83;100.00
52137;BME280;69622;49.570;10.986;2023-05-01T15:00:58;98179.47;;;11.89;100.00
52137;BME280;69622;49.570;10.986;2023-05-01T15:04:00;98176.31;;;11.86;100.00
52137;BME280;69622;49.570;10.986;2023-05-01T15:07:04;98185.38;;;11.91;100.00
52137;BME280;69622;49.570;10.986;2023-05-01T15:10:05;98181.38;;;12.08;100.00
52137;BME280;69622;49.570;10.986;2023-05-01T15:13:07;98178.22;;;12.05;100.00
52137;BME280;69622;49.570;10.986;2023-05-01T15:16:09;98178.69;;;11.98;100.00
52137;BME280;69622;49.570;10.986;2023-05-01T15:19:11;98177.28;;;11.85;100.00
52137;BME280;69622;49.570;10.986;2023-05-01T15:22:12;98179.81;;;11.64;100.00
52137;BME280;69622;49.570;10.986;2023-05-01T15:25:14;98171.16;;;11.95;100.00
52137;BME280;69622;49.570;10.986;2023-05-01T15:28:16;98174.94;;;12.12;100.00
52137;BME280;69622;49.570;10.986;2023-05-01T15:31:18;98167.25;;;12.11;100.00
52137;BME280;69622;49.570;10.986;2023-05-01T15:34:19;98163.88;;;12.20;100.00
52137;BME280;69622;49.570;10.986;2023-05-01T15:37:24;98168.56;;;12.26;100.00
52137;BME280;69622;49.570;10.986;2023-05-01T15:40:25;98165.75;;;12.39;100.00
52137;BME280;69622;49.570;10.986;2023-05-01T15:43:27;98167.81;;;12.35;100.00
52137;BME280;69622;49.570;10.986;2023-05-01T15:46:28;98173.09;;;12.24;100.00
52137;BME280;69622;49.570;10.986;2023-05-01T15:49:30;98169.94;;;12.60;100.00
52137;BME280;69622;49.570;10.986;2023-05-01T15:52:31;98168.38;;;12.88;100.00
52137;BME280;69622;49.570;10.986;2023-05-01T15:55:32;98175.13;;;12.81;100.00
52137;BME280;69622;49.570;10.986;2023-05-01T15:58:34;98174.59;;;12.47;100.00
52137;BME280;69622;49.570;10.986;2023-05-01T16:01:36;98176.84;;;12.31;100.00
52137;BME280;69622;49.570;10.986;2023-05-01T16:04:37;98169.09;;;12.50;100.00
52137;BME280;69622;49.570;10.986;2023-05-01T16:07:39;98175.31;;;12.59;100.00
52137;BME280;69622;49.570;10.986;2023-05-01T16:10:40;98177.69;;;12.72;100.00
52137;BME280;69622;49.570;10.986;2023-05-01T16:13:42;98172.13;;;12.55;100.00
52137;BME280;69622;49.570;10.986;2023-05-01T16:16:43;98167.41;;;12.40;100.00
52137;BME280;69622;49.570;10.986;2023-05-01T16:19:45;98166.19;;;12.44;100.00
52137;BME280;69622;49.570;10.986;2023-05-01T16:22:47;98165.13;;;12.16;100.00
52137;BME280;69622;49.570;10.986;2023-05-01T16:25:48;98168.63;;;12.36;100.00